createdAt,value
2023-04-08T00:00:21.882Z,19.20
2023-04-08T00:02:49.299Z,20.30
2023-04-08T00:05:19.847Z,20.67
2023-04-08T00:07:47.189Z,25.33
2023-04-08T00:10:14.755Z,32.40
2023-04-08T00:12:42.166Z,21.73
2023-04-08T00:15:09.664Z,19.73
2023-04-08T00:17:37.012Z,28.27
2023-04-08T00:20:04.984Z,22.77
2023-04-08T00:22:32.497Z,21.43
2023-04-08T00:24:59.824Z,20.60
2023-04-08T00:27:27.208Z,20.03
2023-04-08T00:29:54.849Z,23.60
2023-04-08T00:32:22.392Z,25.60
2023-04-08T00:34:50.099Z,23.67
2023-04-08T00:37:17.665Z,21.60
2023-04-08T00:39:45.210Z,20.30
2023-04-08T00:42:12.559Z,21.47
2023-04-08T00:44:39.897Z,20.00
2023-04-08T00:47:07.176Z,22.43
2023-04-08T00:49:34.571Z,23.50
2023-04-08T00:52:01.843Z,22.70
2023-04-08T00:54:29.396Z,22.57
2023-04-08T00:56:57.159Z,24.03
2023-04-08T00:59:24.658Z,24.00
2023-04-08T01:02:01.212Z,25.27
2023-04-08T01:04:54.988Z,25.97
2023-04-08T01:07:32.188Z,27.87
2023-04-08T01:10:02.962Z,28.53
2023-04-08T01:12:31.214Z,28.93
2023-04-08T01:15:03.253Z,27.27
2023-04-08T01:17:31.421Z,28.67
2023-04-08T01:20:00.370Z,26.40
2023-04-08T01:22:46.665Z,25.97
2023-04-08T01:25:25.148Z,29.20
2023-04-08T01:27:56.552Z,24.67
2023-04-08T01:30:24.518Z,26.07
2023-04-08T01:32:53.655Z,28.90
2023-04-08T01:35:21.534Z,31.17
2023-04-08T01:37:50.263Z,29.73
2023-04-08T01:40:18.517Z,31.30
2023-04-08T01:42:46.902Z,30.73
2023-04-08T01:45:15.852Z,30.90
2023-04-08T01:47:45.028Z,31.60
2023-04-08T01:50:13.232Z,31.83
2023-04-08T01:52:41.870Z,34.87
2023-04-08T01:55:09.346Z,35.33
2023-04-08T01:57:38.290Z,32.63
2023-04-08T02:00:07.475Z,32.00
2023-04-08T02:02:37.120Z,33.83
2023-04-08T02:05:04.794Z,33.77
2023-04-08T02:07:32.350Z,36.27
2023-04-08T02:10:00.156Z,34.60
2023-04-08T02:12:28.199Z,31.97
2023-04-08T02:14:57.815Z,34.07
2023-04-08T02:17:28.601Z,34.93
2023-04-08T02:20:06.854Z,34.83
2023-04-08T02:22:48.659Z,35.50
2023-04-08T02:25:17.109Z,37.70
2023-04-08T02:27:45.514Z,37.73
2023-04-08T02:30:13.180Z,33.50
2023-04-08T02:32:40.828Z,35.67
2023-04-08T02:35:09.500Z,34.83
2023-04-08T02:37:36.831Z,34.43
2023-04-08T02:40:04.320Z,36.33
2023-04-08T02:42:31.709Z,32.87
2023-04-08T02:44:58.981Z,30.17
2023-04-08T02:47:26.353Z,33.53
2023-04-08T02:49:55.307Z,29.60
2023-04-08T02:52:22.619Z,28.07
2023-04-08T02:54:50.007Z,25.27
2023-04-08T02:57:17.221Z,28.13
2023-04-08T02:59:44.467Z,31.47
2023-04-08T03:02:12.018Z,27.90
2023-04-08T03:04:39.299Z,27.90
2023-04-08T03:07:08.660Z,30.83
2023-04-08T03:09:36.147Z,30.00
2023-04-08T03:12:03.437Z,30.70
2023-04-08T03:14:31.119Z,41.57
2023-04-08T03:16:58.523Z,26.93
2023-04-08T03:19:25.851Z,31.93
2023-04-08T03:21:53.117Z,34.70
2023-04-08T03:24:20.438Z,35.07
2023-04-08T03:26:47.759Z,38.30
2023-04-08T03:29:15.027Z,36.00
2023-04-08T03:31:42.372Z,33.33
2023-04-08T03:34:09.662Z,34.40
2023-04-08T03:36:36.975Z,28.83
2023-04-08T03:41:40.405Z,35.10
2023-04-08T03:44:08.031Z,32.70
2023-04-08T03:46:35.373Z,34.17
2023-04-08T03:49:02.639Z,31.07
2023-04-08T03:51:30.197Z,30.13
2023-04-08T03:53:57.454Z,28.40
2023-04-08T03:56:25.645Z,22.67
2023-04-08T03:58:52.968Z,22.83
2023-04-08T04:01:20.383Z,19.70
2023-04-08T04:03:47.787Z,19.13
2023-04-08T04:06:15.391Z,18.37
2023-04-08T04:08:42.622Z,17.17
2023-04-08T04:11:09.891Z,16.50
2023-04-08T04:13:37.451Z,16.43
2023-04-08T04:16:04.847Z,17.27
2023-04-08T04:18:32.233Z,17.17
2023-04-08T04:20:59.567Z,17.07
2023-04-08T04:23:26.871Z,18.13
2023-04-08T04:25:54.158Z,17.40
2023-04-08T04:28:21.481Z,13.47
2023-04-08T04:30:48.716Z,12.90
2023-04-08T04:33:16.059Z,11.03
2023-04-08T04:35:44.280Z,13.20
2023-04-08T04:38:12.827Z,12.17
2023-04-08T04:40:40.876Z,13.23
2023-04-08T04:43:08.103Z,14.87
2023-04-08T04:45:35.524Z,13.17
2023-04-08T04:48:03.661Z,14.27
2023-04-08T04:50:31.059Z,13.07
2023-04-08T04:52:58.406Z,15.50
2023-04-08T04:55:25.857Z,12.93
2023-04-08T04:57:53.075Z,12.70
2023-04-08T05:00:20.421Z,13.23
2023-04-08T05:02:47.774Z,13.73
2023-04-08T05:05:15.245Z,12.17
2023-04-08T05:07:42.509Z,12.63
2023-04-08T05:10:11.414Z,14.10
2023-04-08T05:12:38.955Z,12.40
2023-04-08T05:15:06.697Z,11.83
2023-04-08T05:17:34.065Z,11.10
2023-04-08T05:20:01.527Z,10.40
2023-04-08T05:22:28.794Z,12.10
2023-04-08T05:24:56.116Z,11.20
2023-04-08T05:27:23.356Z,11.30
2023-04-08T05:29:50.601Z,11.03
2023-04-08T05:32:17.902Z,11.67
2023-04-08T05:34:45.652Z,11.73
2023-04-08T05:37:12.870Z,12.63
2023-04-08T05:39:40.362Z,12.83
2023-04-08T05:42:08.038Z,14.67
2023-04-08T05:44:35.303Z,13.17
2023-04-08T05:47:02.595Z,14.63
2023-04-08T05:49:29.974Z,21.33
2023-04-08T05:51:57.233Z,14.97
2023-04-08T05:54:24.527Z,14.83
2023-04-08T05:56:51.774Z,14.17
2023-04-08T05:59:19.081Z,15.27
2023-04-08T06:01:46.456Z,13.60
2023-04-08T06:04:14.383Z,18.00
2023-04-08T06:06:41.748Z,15.30
2023-04-08T06:09:10.261Z,16.13
2023-04-08T06:11:40.025Z,16.03
2023-04-08T06:14:08.718Z,15.63
2023-04-08T06:16:36.118Z,16.07
2023-04-08T06:19:03.568Z,35.43
2023-04-08T06:21:30.968Z,16.90
2023-04-08T06:23:58.328Z,12.77
2023-04-08T06:26:26.504Z,15.30
2023-04-08T06:28:53.955Z,14.17
2023-04-08T06:31:21.932Z,12.47
2023-04-08T06:33:49.244Z,14.00
2023-04-08T06:36:17.699Z,13.13
2023-04-08T06:38:44.930Z,12.37
2023-04-08T06:41:12.229Z,14.03
2023-04-08T06:43:39.501Z,12.03
2023-04-08T06:46:07.370Z,13.50
2023-04-08T06:48:34.657Z,9.70
2023-04-08T06:51:02.001Z,10.90
2023-04-08T06:53:30.897Z,10.50
2023-04-08T06:55:58.358Z,12.00
2023-04-08T06:58:26.002Z,11.87
2023-04-08T07:00:55.785Z,10.00
2023-04-08T07:03:23.479Z,11.03
2023-04-08T07:05:50.981Z,9.70
2023-04-08T07:08:18.208Z,8.87
2023-04-08T07:10:45.515Z,9.17
2023-04-08T07:13:13.219Z,8.33
2023-04-08T07:15:40.669Z,8.73
2023-04-08T07:18:08.087Z,8.47
2023-04-08T07:20:38.374Z,11.10
2023-04-08T07:23:06.131Z,10.03
2023-04-08T07:25:37.897Z,8.53
2023-04-08T07:28:05.188Z,7.80
2023-04-08T07:30:32.491Z,8.13
2023-04-08T07:33:00.986Z,8.20
2023-04-08T07:35:28.847Z,7.67
2023-04-08T07:37:57.732Z,7.33
2023-04-08T07:40:25.137Z,7.10
2023-04-08T07:42:53.120Z,7.97
2023-04-08T07:45:21.256Z,8.00
2023-04-08T07:47:48.592Z,8.60
2023-04-08T07:50:15.857Z,9.70
2023-04-08T07:52:43.135Z,9.10
2023-04-08T07:55:10.727Z,10.67
2023-04-08T07:57:38.064Z,10.27
2023-04-08T08:00:05.814Z,9.63
2023-04-08T08:02:34.694Z,10.50
2023-04-08T08:05:03.663Z,11.10
2023-04-08T08:07:30.989Z,13.80
2023-04-08T08:09:58.232Z,14.17
2023-04-08T08:12:25.492Z,16.17
2023-04-08T08:14:54.907Z,15.90
2023-04-08T08:17:22.208Z,16.30
2023-04-08T08:19:49.452Z,15.63
2023-04-08T08:22:16.962Z,13.13
2023-04-08T08:24:44.529Z,12.50
2023-04-08T08:27:11.941Z,14.83
2023-04-08T08:29:39.214Z,15.63
2023-04-08T08:32:06.457Z,16.40
2023-04-08T08:34:33.810Z,12.77
2023-04-08T08:37:01.099Z,9.80
2023-04-08T08:39:28.364Z,11.50
2023-04-08T08:41:56.843Z,11.60
2023-04-08T08:44:24.626Z,12.13
2023-04-08T08:46:52.279Z,12.77
2023-04-08T08:49:19.804Z,10.53
2023-04-08T08:51:47.654Z,11.23
2023-04-08T08:54:16.311Z,12.23
2023-04-08T08:56:43.682Z,10.33
2023-04-08T08:59:11.505Z,11.63
2023-04-08T09:01:42.137Z,11.63
2023-04-08T09:04:15.931Z,11.30
2023-04-08T09:06:44.130Z,9.53
2023-04-08T09:09:12.719Z,10.13
2023-04-08T09:11:40.496Z,14.90
2023-04-08T09:14:20.021Z,13.70
2023-04-08T09:16:47.881Z,11.07
2023-04-08T09:19:15.503Z,11.43
2023-04-08T09:21:43.559Z,10.47
2023-04-08T09:24:11.665Z,12.33
2023-04-08T09:26:39.120Z,8.97
2023-04-08T09:29:24.147Z,9.13
2023-04-08T09:31:59.333Z,10.43
2023-04-08T09:34:27.544Z,9.73
2023-04-08T09:36:56.190Z,10.23
2023-04-08T09:39:24.108Z,10.87
2023-04-08T09:41:52.816Z,11.30
2023-04-08T09:44:21.762Z,13.23
2023-04-08T09:46:52.890Z,13.57
2023-04-08T09:49:27.282Z,13.33
2023-04-08T09:52:01.115Z,18.67
2023-04-08T09:54:55.018Z,16.07
2023-04-08T09:57:28.749Z,15.97
2023-04-08T10:00:04.158Z,14.87
2023-04-08T10:02:34.829Z,16.63
2023-04-08T10:05:05.594Z,14.40
2023-04-08T10:07:36.281Z,16.70
2023-04-08T10:10:03.989Z,15.20
2023-04-08T10:12:31.409Z,17.93
2023-04-08T10:15:17.442Z,15.47
2023-04-08T10:17:44.673Z,16.67
2023-04-08T10:20:32.036Z,15.47
2023-04-08T10:22:59.605Z,15.10
2023-04-08T10:25:26.834Z,14.30
2023-04-08T10:27:54.152Z,15.13
2023-04-08T10:30:33.819Z,14.40
2023-04-08T10:33:10.431Z,14.13
2023-04-08T10:35:38.422Z,14.77
2023-04-08T10:38:05.922Z,15.00
2023-04-08T10:40:39.232Z,13.27
2023-04-08T10:43:06.661Z,14.53
2023-04-08T10:45:34.014Z,15.80
2023-04-08T10:48:22.772Z,13.80
2023-04-08T10:50:55.168Z,14.07
2023-04-08T10:53:29.037Z,13.97
2023-04-08T10:56:05.032Z,15.27
2023-04-08T10:58:32.483Z,13.23
2023-04-08T11:01:09.675Z,13.90
2023-04-08T11:03:37.969Z,13.03
2023-04-08T11:06:05.860Z,14.37
2023-04-08T11:08:34.144Z,14.67
2023-04-08T11:11:02.291Z,14.07
2023-04-08T11:13:30.056Z,13.67
2023-04-08T11:15:58.053Z,13.67
2023-04-08T11:18:27.523Z,14.03
2023-04-08T11:20:56.391Z,13.53
2023-04-08T11:23:27.837Z,15.10
2023-04-08T11:25:56.792Z,14.17
2023-04-08T11:28:25.497Z,13.37
2023-04-08T11:31:03.823Z,14.20
2023-04-08T11:33:35.403Z,17.87
2023-04-08T11:36:10.174Z,13.47
2023-04-08T11:38:41.152Z,14.83
2023-04-08T11:41:08.810Z,14.27
2023-04-08T11:43:41.025Z,14.37
2023-04-08T11:46:12.819Z,14.13
2023-04-08T11:48:40.542Z,15.23
2023-04-08T11:51:12.706Z,14.43
2023-04-08T11:53:40.313Z,15.90
2023-04-08T11:56:21.500Z,13.83
2023-04-08T11:58:49.465Z,16.77
2023-04-08T12:01:16.891Z,15.93
2023-04-08T12:03:57.311Z,15.77
2023-04-08T12:06:27.168Z,15.63
2023-04-08T12:08:55.161Z,18.67
2023-04-08T12:11:22.726Z,15.53
2023-04-08T12:13:51.107Z,14.93
2023-04-08T12:16:19.185Z,16.87
2023-04-08T12:18:47.486Z,18.57
2023-04-08T12:21:14.811Z,15.27
2023-04-08T12:23:42.351Z,16.03
2023-04-08T12:26:10.039Z,15.70
2023-04-08T12:28:37.431Z,17.23
2023-04-08T12:31:04.972Z,15.30
2023-04-08T12:33:32.691Z,16.83
2023-04-08T12:36:00.196Z,16.97
2023-04-08T12:38:27.673Z,18.70
2023-04-08T12:40:55.398Z,18.30
2023-04-08T12:43:24.136Z,16.37
2023-04-08T12:45:52.017Z,32.80
2023-04-08T12:48:19.412Z,15.73
2023-04-08T12:50:46.879Z,14.93
2023-04-08T12:53:14.276Z,15.10
2023-04-08T12:55:43.165Z,17.40
2023-04-08T12:58:12.010Z,15.50
2023-04-08T13:00:40.348Z,15.87
2023-04-08T13:03:08.004Z,15.23
2023-04-08T13:05:43.352Z,15.40
2023-04-08T13:08:14.858Z,15.07
2023-04-08T13:10:43.606Z,13.40
2023-04-08T13:13:12.327Z,16.13
2023-04-08T13:15:39.668Z,13.67
2023-04-08T13:18:07.138Z,14.30
2023-04-08T13:20:35.430Z,14.83
2023-04-08T13:23:03.398Z,16.17
2023-04-08T13:25:30.807Z,15.50
2023-04-08T13:27:58.093Z,14.10
2023-04-08T13:30:25.310Z,14.90
2023-04-08T13:32:52.947Z,14.57
2023-04-08T13:35:20.514Z,14.63
2023-04-08T13:37:48.325Z,32.13
2023-04-08T13:40:15.605Z,16.83
2023-04-08T13:42:43.072Z,16.43
2023-04-08T13:45:10.471Z,14.70
2023-04-08T13:47:39.125Z,14.40
2023-04-08T13:50:07.454Z,14.80
2023-04-08T13:52:34.782Z,15.03
2023-04-08T13:55:02.139Z,15.13
2023-04-08T13:57:29.626Z,15.37
2023-04-08T13:59:57.357Z,14.73
2023-04-08T14:02:24.719Z,14.67
2023-04-08T14:04:53.117Z,16.73
2023-04-08T14:07:20.646Z,16.87
2023-04-08T14:09:48.066Z,15.77
2023-04-08T14:12:15.633Z,14.87
2023-04-08T14:14:43.201Z,16.53
2023-04-08T14:17:10.777Z,15.63
2023-04-08T14:19:38.246Z,16.77
2023-04-08T14:22:05.577Z,17.33
2023-04-08T14:24:33.229Z,19.80
2023-04-08T14:27:00.521Z,16.10
2023-04-08T14:29:27.864Z,17.97
2023-04-08T14:31:55.191Z,15.83
2023-04-08T14:34:22.666Z,16.60
2023-04-08T14:36:50.061Z,16.20
2023-04-08T14:39:17.406Z,15.60
2023-04-08T14:41:46.903Z,17.23
2023-04-08T14:44:14.449Z,17.17
2023-04-08T14:46:41.838Z,17.43
2023-04-08T14:49:09.398Z,17.13
2023-04-08T14:51:38.480Z,19.07
2023-04-08T14:54:05.964Z,17.57
2023-04-08T14:56:33.344Z,17.50
2023-04-08T14:59:01.180Z,17.17
2023-04-08T15:01:31.841Z,16.50
2023-04-08T15:04:02.573Z,18.20
2023-04-08T15:06:31.077Z,17.53
2023-04-08T15:08:58.564Z,17.30
2023-04-08T15:11:25.870Z,20.03
2023-04-08T15:13:53.105Z,18.73
2023-04-08T15:16:20.829Z,17.77
2023-04-08T15:18:48.224Z,19.43
2023-04-08T15:21:15.693Z,17.97
2023-04-08T15:23:43.713Z,18.10
2023-04-08T15:26:11.448Z,17.13
2023-04-08T15:28:40.450Z,15.50
2023-04-08T15:31:07.767Z,18.33
2023-04-08T15:33:35.628Z,16.50
2023-04-08T15:36:04.174Z,19.97
2023-04-08T15:38:33.715Z,16.50
2023-04-08T15:41:02.064Z,17.97
2023-04-08T15:43:29.543Z,16.47
2023-04-08T15:45:57.062Z,18.77
2023-04-08T15:48:24.481Z,18.90
2023-04-08T15:50:52.324Z,20.83
2023-04-08T15:53:19.979Z,18.47
2023-04-08T15:55:47.576Z,21.37
2023-04-08T15:58:15.938Z,18.40
2023-04-08T16:00:43.238Z,16.77
2023-04-08T16:03:12.242Z,18.53
2023-04-08T16:05:41.887Z,18.00
2023-04-08T16:08:09.480Z,19.63
2023-04-08T16:10:37.303Z,16.93
2023-04-08T16:13:04.962Z,18.30
2023-04-08T16:15:34.142Z,19.80
2023-04-08T16:18:01.620Z,16.80
2023-04-08T16:20:29.649Z,16.50
2023-04-08T16:22:57.099Z,22.13
2023-04-08T16:25:25.335Z,21.37
2023-04-08T16:27:54.169Z,18.60
2023-04-08T16:30:21.981Z,18.70
2023-04-08T16:32:49.657Z,19.30
2023-04-08T16:35:17.887Z,20.67
2023-04-08T16:37:45.318Z,24.70
2023-04-08T16:40:13.180Z,18.87
2023-04-08T16:42:40.600Z,18.60
2023-04-08T16:45:08.486Z,108.90
2023-04-08T16:47:35.812Z,24.00
2023-04-08T16:50:03.422Z,22.43
2023-04-08T16:52:31.225Z,16.77
2023-04-08T16:54:58.921Z,13.93
2023-04-08T16:57:29.338Z,14.20
2023-04-08T16:59:56.610Z,13.70
2023-04-08T17:02:24.141Z,13.07
2023-04-08T17:04:51.734Z,11.77
2023-04-08T17:07:18.994Z,10.77
2023-04-08T17:09:49.938Z,12.60
2023-04-08T17:12:17.510Z,13.03
2023-04-08T17:14:44.942Z,12.43
2023-04-08T17:17:12.291Z,11.67
2023-04-08T17:19:39.681Z,13.50
2023-04-08T17:22:07.393Z,12.80
2023-04-08T17:24:34.650Z,14.10
2023-04-08T17:27:03.179Z,12.87
2023-04-08T17:29:30.499Z,12.80
2023-04-08T17:31:57.768Z,12.10
2023-04-08T17:34:26.465Z,13.27
2023-04-08T17:36:53.842Z,11.57
2023-04-08T17:39:21.762Z,12.20
2023-04-08T17:41:49.567Z,14.83
2023-04-08T17:44:17.318Z,16.10
2023-04-08T17:46:44.755Z,27.10
2023-04-08T17:49:14.310Z,21.17
2023-04-08T17:51:41.668Z,13.60
2023-04-08T17:54:09.046Z,12.50
2023-04-08T17:56:36.711Z,12.87
2023-04-08T17:59:04.044Z,12.63
2023-04-08T18:01:31.382Z,18.57
2023-04-08T18:03:58.791Z,13.87
2023-04-08T18:06:26.280Z,11.50
2023-04-08T18:08:57.301Z,12.13
2023-04-08T18:11:27.096Z,11.70
2023-04-08T18:13:54.552Z,17.13
2023-04-08T18:16:22.698Z,12.60
2023-04-08T18:18:51.438Z,12.13
2023-04-08T18:21:18.776Z,13.90
2023-04-08T18:23:49.766Z,27.90
2023-04-08T18:26:17.438Z,29.37
2023-04-08T18:28:45.022Z,26.73
2023-04-08T18:31:12.490Z,26.57
2023-04-08T18:33:40.021Z,13.30
2023-04-08T18:36:12.320Z,12.93
2023-04-08T18:38:40.914Z,10.33
2023-04-08T18:41:09.194Z,11.20
2023-04-08T18:43:37.014Z,10.50
2023-04-08T18:46:04.799Z,11.50
2023-04-08T18:48:33.230Z,11.43
2023-04-08T18:51:02.109Z,14.23
2023-04-08T18:53:29.587Z,25.07
2023-04-08T18:55:56.915Z,21.57
2023-04-08T18:58:24.139Z,15.23
2023-04-08T19:00:51.676Z,14.70
2023-04-08T19:03:19.270Z,17.20
2023-04-08T19:05:46.794Z,13.13
2023-04-08T19:08:14.115Z,14.93
2023-04-08T19:10:41.619Z,12.43
2023-04-08T19:13:08.987Z,14.43
2023-04-08T19:15:37.061Z,11.77
2023-04-08T19:18:05.726Z,14.40
2023-04-08T19:20:33.782Z,15.63
2023-04-08T19:23:01.405Z,14.97
2023-04-08T19:25:28.646Z,13.37
2023-04-08T19:27:56.597Z,11.90
2023-04-08T19:30:24.008Z,11.80
2023-04-08T19:32:51.817Z,11.77
2023-04-08T19:35:19.388Z,11.20
2023-04-08T19:37:46.826Z,10.60
2023-04-08T19:40:14.298Z,11.20
2023-04-08T19:42:41.822Z,11.07
2023-04-08T19:45:10.898Z,10.50
2023-04-08T19:47:39.733Z,11.07
2023-04-08T19:50:08.093Z,11.40
2023-04-08T19:52:36.752Z,10.60
2023-04-08T19:55:04.123Z,10.93
2023-04-08T19:57:31.758Z,10.53
2023-04-08T19:59:59.059Z,11.63
2023-04-08T20:02:26.506Z,10.67
2023-04-08T20:04:53.941Z,9.47
2023-04-08T20:07:21.171Z,9.67
2023-04-08T20:09:49.080Z,9.30
2023-04-08T20:12:16.579Z,9.43
2023-04-08T20:14:45.105Z,10.60
2023-04-08T20:17:13.009Z,11.43
2023-04-08T20:19:41.488Z,16.07
2023-04-08T20:22:08.848Z,26.87
2023-04-08T20:24:36.827Z,15.03
2023-04-08T20:27:04.122Z,10.97
2023-04-08T20:29:32.247Z,10.17
2023-04-08T20:31:59.987Z,11.47
2023-04-08T20:34:27.299Z,10.27
2023-04-08T20:36:54.601Z,10.90
2023-04-08T20:39:29.408Z,10.80
2023-04-08T20:41:58.115Z,12.90
2023-04-08T20:44:26.019Z,11.53
2023-04-08T20:46:53.476Z,11.50
2023-04-08T20:49:21.116Z,11.80
2023-04-08T20:51:48.558Z,11.23
2023-04-08T20:54:15.876Z,11.23
2023-04-08T20:56:43.465Z,11.43
2023-04-08T20:59:10.796Z,13.07
2023-04-08T21:01:38.270Z,12.60
2023-04-08T21:04:05.709Z,13.07
2023-04-08T21:06:33.044Z,12.30
2023-04-08T21:09:00.622Z,12.33
2023-04-08T21:11:28.505Z,12.33
2023-04-08T21:13:56.404Z,15.80
2023-04-08T21:16:23.785Z,10.23
2023-04-08T21:18:51.375Z,30.73
2023-04-08T21:21:19.000Z,12.13
2023-04-08T21:23:46.257Z,11.77
2023-04-08T21:26:14.043Z,15.00
2023-04-08T21:28:41.417Z,14.10
2023-04-08T21:31:09.502Z,14.17
2023-04-08T21:33:37.112Z,13.13
2023-04-08T21:36:06.208Z,12.60
2023-04-08T21:38:33.961Z,13.63
2023-04-08T21:41:01.408Z,11.40
2023-04-08T21:43:29.125Z,11.20
2023-04-08T21:45:56.542Z,13.67
2023-04-08T21:48:23.888Z,12.53
2023-04-08T21:50:51.215Z,13.63
2023-04-08T21:53:18.496Z,14.13
2023-04-08T21:55:45.701Z,16.47
2023-04-08T21:58:13.064Z,12.73
2023-04-08T22:00:40.561Z,14.13
2023-04-08T22:03:07.952Z,13.47
2023-04-08T22:05:35.990Z,14.23
2023-04-08T22:08:03.294Z,14.90
2023-04-08T22:10:30.576Z,14.93
2023-04-08T22:12:57.820Z,14.07
2023-04-08T22:15:25.128Z,13.90
2023-04-08T22:17:53.226Z,15.63
2023-04-08T22:20:20.778Z,15.77
2023-04-08T22:22:48.151Z,16.40
2023-04-08T22:25:15.759Z,17.33
2023-04-08T22:27:43.054Z,18.23
2023-04-08T22:30:10.527Z,16.43
2023-04-08T22:32:37.892Z,17.70
2023-04-08T22:35:05.757Z,16.97
2023-04-08T22:37:33.187Z,17.17
2023-04-08T22:40:01.108Z,16.93
2023-04-08T22:42:28.546Z,18.67
2023-04-08T22:44:56.278Z,18.07
2023-04-08T22:47:26.779Z,17.90
2023-04-08T22:49:54.058Z,19.20
2023-04-08T22:52:21.430Z,18.57
2023-04-08T22:54:48.746Z,19.77
2023-04-08T22:57:16.017Z,20.80
2023-04-08T22:59:43.525Z,21.60
2023-04-08T23:02:11.863Z,19.47
2023-04-08T23:04:39.452Z,23.00
2023-04-08T23:07:06.829Z,20.30
2023-04-08T23:09:34.229Z,20.70
2023-04-08T23:12:01.719Z,20.17
2023-04-08T23:14:29.021Z,20.97
2023-04-08T23:16:56.339Z,20.87
2023-04-08T23:19:24.003Z,20.50
2023-04-08T23:21:51.368Z,20.90
2023-04-08T23:24:18.680Z,20.97
2023-04-08T23:26:46.143Z,20.47
2023-04-08T23:29:13.429Z,20.53
2023-04-08T23:31:40.779Z,22.23
2023-04-08T23:34:08.301Z,22.57
2023-04-08T23:36:35.662Z,21.73
2023-04-08T23:39:03.226Z,21.83
2023-04-08T23:41:31.486Z,19.93
2023-04-08T23:43:58.726Z,20.50
2023-04-08T23:46:27.241Z,21.50
2023-04-08T23:48:54.686Z,21.43
2023-04-08T23:51:22.040Z,20.83
2023-04-08T23:53:49.591Z,20.43
2023-04-08T23:56:17.456Z,21.43
2023-04-08T23:58:44.750Z,19.93
